createdAt,value
2022-12-31T00:01:40.960Z,1.23
2022-12-31T00:04:07.433Z,1.38
2022-12-31T00:06:35.952Z,1.67
2022-12-31T00:09:05.311Z,1.25
2022-12-31T00:11:32.777Z,1.40
2022-12-31T00:13:59.821Z,1.10
2022-12-31T00:16:32.306Z,1.50
2022-12-31T00:19:00.560Z,1.15
2022-12-31T00:21:31.656Z,1.30
2022-12-31T00:26:29.735Z,1.23
2022-12-31T00:28:57.644Z,0.98
2022-12-31T00:31:26.876Z,1.02
2022-12-31T00:33:53.605Z,1.02
2022-12-31T00:36:23.054Z,1.00
2022-12-31T00:38:51.910Z,1.33
2022-12-31T00:41:20.094Z,0.77
2022-12-31T00:43:47.187Z,1.02
2022-12-31T00:46:14.312Z,1.00
2022-12-31T00:48:41.008Z,0.75
2022-12-31T00:51:10.289Z,1.00
2022-12-31T00:53:37.208Z,1.08
2022-12-31T00:56:05.977Z,1.10
2022-12-31T00:58:33.364Z,0.95
2022-12-31T01:01:08.422Z,0.82
2022-12-31T01:03:35.025Z,0.85
2022-12-31T01:06:01.736Z,0.80
2022-12-31T01:08:28.141Z,0.70
2022-12-31T01:11:13.450Z,0.80
2022-12-31T01:13:39.845Z,0.70
2022-12-31T01:16:10.865Z,0.80
2022-12-31T01:21:07.010Z,0.70
2022-12-31T01:23:34.135Z,0.70
2022-12-31T01:26:03.960Z,0.70
2022-12-31T01:28:30.934Z,0.70
2022-12-31T01:30:57.869Z,0.63
2022-12-31T01:33:24.308Z,0.60
2022-12-31T01:35:51.868Z,0.60
2022-12-31T01:38:18.272Z,0.60
2022-12-31T01:40:44.672Z,0.60
2022-12-31T01:43:19.977Z,0.70
2022-12-31T01:45:49.850Z,0.63
2022-12-31T01:48:22.489Z,0.70
2022-12-31T01:50:49.858Z,0.65
2022-12-31T01:53:18.122Z,0.68
2022-12-31T01:55:56.190Z,0.68
2022-12-31T01:58:37.928Z,0.77
2022-12-31T02:01:05.316Z,0.60
2022-12-31T02:03:31.859Z,0.60
2022-12-31T02:06:06.821Z,0.70
2022-12-31T02:08:41.634Z,0.70
2022-12-31T02:11:23.912Z,0.60
2022-12-31T02:13:56.520Z,0.90
2022-12-31T02:16:36.768Z,1.17
2022-12-31T02:19:32.764Z,0.63
2022-12-31T02:22:30.331Z,0.75
2022-12-31T02:25:18.412Z,0.60
2022-12-31T02:28:26.882Z,0.90
2022-12-31T02:31:01.172Z,0.60
2022-12-31T02:33:41.126Z,0.88
2022-12-31T02:36:17.143Z,0.50
2022-12-31T02:38:47.848Z,0.60
2022-12-31T02:41:36.735Z,0.80
2022-12-31T02:44:24.953Z,0.80
2022-12-31T02:47:13.599Z,0.70
2022-12-31T02:50:09.683Z,0.50
2022-12-31T02:53:20.180Z,0.60
2022-12-31T03:04:35.755Z,0.60
2022-12-31T03:07:05.610Z,0.65
2022-12-31T03:09:33.096Z,0.80
2022-12-31T03:12:19.378Z,0.65
2022-12-31T03:14:45.792Z,0.68
2022-12-31T03:17:12.287Z,0.60
2022-12-31T03:19:57.283Z,0.70
2022-12-31T03:22:29.698Z,0.68
2022-12-31T03:25:20.772Z,0.45
2022-12-31T03:27:47.818Z,0.60
2022-12-31T03:30:16.806Z,0.60
2022-12-31T03:32:45.011Z,0.57
2022-12-31T03:35:20.208Z,0.60
2022-12-31T03:37:48.124Z,0.70
2022-12-31T03:40:16.007Z,0.50
2022-12-31T03:42:42.616Z,0.75
2022-12-31T03:45:10.584Z,0.63
2022-12-31T03:47:37.003Z,0.82
2022-12-31T03:50:04.998Z,0.70
2022-12-31T03:52:31.387Z,0.60
2022-12-31T03:54:57.804Z,0.70
2022-12-31T03:57:24.290Z,0.50
2022-12-31T03:59:50.868Z,0.50
2022-12-31T04:02:26.347Z,0.55
2022-12-31T04:04:54.834Z,0.60
2022-12-31T04:07:21.257Z,0.60
2022-12-31T04:09:47.671Z,0.60
2022-12-31T04:12:14.129Z,0.52
2022-12-31T04:14:40.625Z,0.60
2022-12-31T04:17:07.066Z,0.75
2022-12-31T04:19:33.478Z,0.60
2022-12-31T04:21:59.918Z,0.50
2022-12-31T04:24:26.494Z,0.52
2022-12-31T04:26:52.900Z,0.60
2022-12-31T04:29:19.328Z,0.60
2022-12-31T04:31:45.741Z,0.60
2022-12-31T04:34:12.163Z,0.73
2022-12-31T04:36:38.549Z,0.70
2022-12-31T04:39:04.949Z,0.60
2022-12-31T04:41:31.367Z,0.70
2022-12-31T04:43:59.013Z,0.82
2022-12-31T04:46:30.621Z,0.80
2022-12-31T04:48:57.855Z,0.70
2022-12-31T04:51:25.656Z,0.60
2022-12-31T04:53:52.118Z,0.60
2022-12-31T04:56:18.946Z,0.60
2022-12-31T04:58:45.642Z,0.68
2022-12-31T05:01:12.653Z,0.75
2022-12-31T05:03:39.201Z,0.50
2022-12-31T05:06:08.569Z,0.57
2022-12-31T05:08:36.175Z,0.70
2022-12-31T05:11:03.061Z,0.55
2022-12-31T05:13:33.306Z,0.50
2022-12-31T05:16:01.107Z,0.68
2022-12-31T05:18:27.962Z,0.68
2022-12-31T05:20:54.374Z,0.70
2022-12-31T05:23:20.841Z,0.77
2022-12-31T05:25:48.159Z,0.70
2022-12-31T05:28:16.020Z,0.70
2022-12-31T05:30:43.403Z,0.70
2022-12-31T05:33:10.483Z,0.77
2022-12-31T05:35:37.212Z,0.70
2022-12-31T05:38:03.809Z,0.77
2022-12-31T05:40:30.705Z,0.70
2022-12-31T05:42:57.419Z,1.05
2022-12-31T05:45:30.166Z,0.70
2022-12-31T05:47:57.277Z,0.70
2022-12-31T05:50:23.685Z,0.73
2022-12-31T05:52:55.226Z,0.70
2022-12-31T05:55:21.624Z,0.93
2022-12-31T05:57:48.023Z,0.85
2022-12-31T06:00:14.899Z,0.82
2022-12-31T06:02:41.929Z,0.80
2022-12-31T06:05:09.090Z,0.73
2022-12-31T06:07:38.357Z,0.63
2022-12-31T06:10:05.503Z,0.60
2022-12-31T06:12:35.438Z,0.82
2022-12-31T06:15:01.935Z,0.80
2022-12-31T06:17:31.940Z,0.77
2022-12-31T06:19:59.738Z,0.90
2022-12-31T06:22:26.473Z,0.77
2022-12-31T06:24:52.864Z,0.98
2022-12-31T06:27:19.282Z,0.95
2022-12-31T06:29:45.760Z,0.57
2022-12-31T06:32:12.548Z,0.60
2022-12-31T06:34:38.952Z,0.77
2022-12-31T06:37:05.364Z,0.70
2022-12-31T06:39:31.789Z,0.93
2022-12-31T06:41:58.213Z,0.70
2022-12-31T06:44:24.641Z,0.57
2022-12-31T06:46:51.370Z,0.70
2022-12-31T06:49:17.816Z,0.60
2022-12-31T06:51:46.015Z,0.70
2022-12-31T06:54:13.168Z,0.60
2022-12-31T06:56:42.885Z,0.70
2022-12-31T06:59:24.471Z,0.60
2022-12-31T07:02:07.469Z,0.70
2022-12-31T07:04:46.937Z,0.50
2022-12-31T07:07:26.169Z,0.60
2022-12-31T07:10:03.656Z,0.90
2022-12-31T07:12:43.899Z,0.60
2022-12-31T07:15:16.324Z,0.57
2022-12-31T07:18:14.851Z,0.70
2022-12-31T07:20:41.526Z,0.40
2022-12-31T07:23:08.257Z,0.45
2022-12-31T07:25:36.652Z,0.57
2022-12-31T07:28:20.175Z,0.43
2022-12-31T07:30:59.565Z,0.60
2022-12-31T07:33:39.880Z,0.60
2022-12-31T07:36:30.260Z,0.50
2022-12-31T07:39:05.621Z,0.60
2022-12-31T07:42:03.321Z,0.60
2022-12-31T07:44:38.368Z,0.73
2022-12-31T07:47:12.468Z,0.60
2022-12-31T07:49:42.812Z,0.60
2022-12-31T07:52:09.613Z,0.60
2022-12-31T07:54:36.077Z,0.50
2022-12-31T07:57:02.526Z,0.50
2022-12-31T08:00:01.803Z,0.60
2022-12-31T08:03:10.360Z,0.60
2022-12-31T08:05:58.065Z,0.70
2022-12-31T08:08:36.232Z,0.60
2022-12-31T08:11:17.836Z,0.75
2022-12-31T08:13:45.207Z,0.98
2022-12-31T08:16:13.136Z,0.52
2022-12-31T08:18:40.021Z,0.47
2022-12-31T08:21:21.407Z,0.68
2022-12-31T08:24:12.676Z,0.70
2022-12-31T08:26:52.790Z,0.70
2022-12-31T08:29:38.250Z,0.50
2022-12-31T08:32:16.833Z,0.70
2022-12-31T08:35:05.009Z,0.55
2022-12-31T08:37:58.302Z,0.60
2022-12-31T08:40:38.299Z,0.80
2022-12-31T08:43:16.977Z,0.73
2022-12-31T08:45:52.105Z,0.73
2022-12-31T08:48:39.296Z,0.70
2022-12-31T08:51:06.293Z,0.52
2022-12-31T08:53:33.094Z,0.70
2022-12-31T08:56:38.725Z,0.60
2022-12-31T08:59:26.624Z,0.60
2022-12-31T09:01:55.838Z,0.80
2022-12-31T09:04:45.941Z,0.70
2022-12-31T09:07:13.945Z,0.55
2022-12-31T09:09:54.802Z,0.60
2022-12-31T09:12:41.859Z,0.68
2022-12-31T09:15:15.124Z,0.60
2022-12-31T09:17:50.618Z,0.88
2022-12-31T09:20:42.356Z,0.60
2022-12-31T09:23:11.537Z,0.73
2022-12-31T09:25:46.752Z,0.70
2022-12-31T09:28:19.664Z,0.95
2022-12-31T09:30:50.783Z,0.82
2022-12-31T09:33:32.944Z,0.73
2022-12-31T09:36:05.456Z,0.80
2022-12-31T09:38:52.548Z,0.85
2022-12-31T09:41:52.712Z,0.75
2022-12-31T09:45:05.133Z,0.70
2022-12-31T09:47:46.553Z,0.90
2022-12-31T09:50:29.947Z,0.63
2022-12-31T09:53:08.029Z,0.77
2022-12-31T09:55:45.529Z,0.57
2022-12-31T09:58:36.444Z,0.60
2022-12-31T10:01:14.080Z,0.60
2022-12-31T10:03:46.596Z,0.63
2022-12-31T10:06:25.921Z,0.50
2022-12-31T10:09:30.071Z,0.73
2022-12-31T10:12:26.812Z,0.82
2022-12-31T10:15:10.069Z,0.80
2022-12-31T10:18:09.319Z,0.60
2022-12-31T10:20:56.675Z,1.20
2022-12-31T10:23:43.558Z,0.73
2022-12-31T10:26:28.448Z,0.90
2022-12-31T10:29:25.529Z,0.70
2022-12-31T10:32:19.790Z,0.80
2022-12-31T10:35:11.784Z,0.65
2022-12-31T10:37:52.847Z,0.70
2022-12-31T10:43:26.357Z,0.90
2022-12-31T10:46:34.892Z,0.60
2022-12-31T10:49:41.777Z,0.70
2022-12-31T10:52:38.187Z,0.90
2022-12-31T10:55:44.578Z,0.85
2022-12-31T10:58:39.760Z,0.80
2022-12-31T11:01:24.199Z,0.75
2022-12-31T11:04:34.133Z,1.10
2022-12-31T11:07:36.733Z,1.38
2022-12-31T11:10:21.578Z,0.90
2022-12-31T11:13:38.270Z,1.20
2022-12-31T11:16:33.293Z,0.90
2022-12-31T11:19:29.944Z,0.90
2022-12-31T11:22:24.928Z,1.38
2022-12-31T11:25:11.399Z,1.05
2022-12-31T11:28:13.662Z,1.15
2022-12-31T11:31:05.089Z,0.93
2022-12-31T11:33:53.073Z,0.77
2022-12-31T11:36:19.484Z,1.00
2022-12-31T11:39:12.292Z,0.80
2022-12-31T11:42:20.543Z,1.20
2022-12-31T11:44:57.489Z,1.15
2022-12-31T11:48:29.183Z,1.25
2022-12-31T11:51:39.516Z,1.02
2022-12-31T11:54:32.573Z,1.00
2022-12-31T11:57:16.176Z,1.20
2022-12-31T11:59:42.566Z,0.80
2022-12-31T12:02:32.116Z,0.80
2022-12-31T12:05:08.270Z,0.90
2022-12-31T12:07:36.893Z,0.90
2022-12-31T12:10:14.965Z,1.00
2022-12-31T12:12:42.514Z,1.50
2022-12-31T12:15:16.829Z,1.67
2022-12-31T12:17:43.538Z,0.80
2022-12-31T12:20:24.588Z,1.13
2022-12-31T12:22:53.275Z,1.27
2022-12-31T12:25:23.757Z,1.38
2022-12-31T12:27:50.165Z,0.90
2022-12-31T12:30:26.795Z,0.93
2022-12-31T12:32:55.915Z,0.95
2022-12-31T12:35:36.136Z,0.90
2022-12-31T12:38:13.458Z,0.87
2022-12-31T12:40:40.667Z,0.80
2022-12-31T12:43:22.531Z,1.33
2022-12-31T12:45:52.048Z,0.90
2022-12-31T12:48:29.710Z,1.00
2022-12-31T12:50:56.128Z,1.20
2022-12-31T12:53:46.505Z,1.33
2022-12-31T12:56:24.798Z,1.05
2022-12-31T12:59:09.926Z,0.90
2022-12-31T13:01:53.662Z,0.93
2022-12-31T13:04:42.066Z,1.20
2022-12-31T13:07:52.587Z,1.17
2022-12-31T13:10:51.330Z,1.00
2022-12-31T13:13:48.697Z,1.05
2022-12-31T13:16:34.939Z,1.27
2022-12-31T13:19:22.316Z,0.90
2022-12-31T13:22:12.152Z,1.00
2022-12-31T13:25:01.866Z,1.15
2022-12-31T13:27:35.618Z,1.08
2022-12-31T13:30:04.660Z,1.10
2022-12-31T13:32:40.732Z,1.00
2022-12-31T13:35:32.899Z,1.08
2022-12-31T13:38:07.012Z,0.98
2022-12-31T13:41:00.226Z,1.27
2022-12-31T13:43:50.708Z,0.90
2022-12-31T13:46:40.150Z,1.08
2022-12-31T13:49:18.701Z,1.10
2022-12-31T13:51:47.874Z,1.30
2022-12-31T13:54:44.737Z,1.05
2022-12-31T13:57:23.504Z,0.95
2022-12-31T13:59:57.019Z,0.90
2022-12-31T14:02:37.826Z,1.17
2022-12-31T14:05:19.218Z,1.05
2022-12-31T14:07:53.990Z,1.30
2022-12-31T14:10:34.359Z,1.40
2022-12-31T14:13:35.189Z,1.10
2022-12-31T14:16:17.151Z,1.05
2022-12-31T14:19:02.338Z,1.17
2022-12-31T14:21:38.001Z,3.40
2022-12-31T14:24:27.362Z,1.10
2022-12-31T14:26:58.621Z,1.40
2022-12-31T14:29:37.319Z,0.80
2022-12-31T14:32:36.941Z,1.45
2022-12-31T14:35:21.249Z,1.02
2022-12-31T14:38:03.103Z,1.00
2022-12-31T14:40:56.721Z,1.00
2022-12-31T14:43:40.407Z,0.85
2022-12-31T14:46:33.028Z,0.90
2022-12-31T14:49:16.028Z,1.30
2022-12-31T14:51:45.227Z,1.10
2022-12-31T14:54:28.970Z,1.10
2022-12-31T14:56:55.759Z,1.02
2022-12-31T14:59:28.912Z,1.00
2022-12-31T15:01:58.187Z,1.38
2022-12-31T15:04:45.307Z,1.27
2022-12-31T15:07:46.830Z,1.77
2022-12-31T15:10:22.348Z,1.40
2022-12-31T15:13:12.120Z,1.02
2022-12-31T15:16:02.633Z,1.00
2022-12-31T15:18:42.689Z,1.15
2022-12-31T15:21:24.998Z,1.00
2022-12-31T15:23:51.528Z,1.05
2022-12-31T15:26:26.789Z,1.27
2022-12-31T15:29:00.314Z,1.42
2022-12-31T15:31:28.624Z,1.20
2022-12-31T15:34:23.023Z,1.02
2022-12-31T15:36:58.451Z,1.75
2022-12-31T15:39:48.233Z,1.70
2022-12-31T15:42:39.215Z,1.95
2022-12-31T15:45:23.021Z,2.15
2022-12-31T15:47:56.649Z,1.42
2022-12-31T15:50:29.571Z,2.50
2022-12-31T15:52:59.923Z,2.00
2022-12-31T15:55:32.328Z,1.77
2022-12-31T15:58:05.190Z,1.60
2022-12-31T16:00:57.221Z,1.88
2022-12-31T16:03:25.769Z,1.58
2022-12-31T16:05:57.403Z,1.10
2022-12-31T16:08:28.335Z,1.73
2022-12-31T16:13:25.310Z,1.95
2022-12-31T16:15:57.562Z,1.47
2022-12-31T16:18:23.986Z,2.15
2022-12-31T16:21:00.097Z,1.80
2022-12-31T16:23:30.293Z,2.13
2022-12-31T16:26:01.468Z,2.13
2022-12-31T16:28:32.576Z,2.08
2022-12-31T16:31:02.880Z,1.88
2022-12-31T16:33:32.382Z,2.15
2022-12-31T16:36:04.834Z,1.70
2022-12-31T16:38:37.916Z,1.83
2022-12-31T16:41:18.533Z,1.90
2022-12-31T16:43:46.958Z,1.50
2022-12-31T16:46:27.432Z,1.80
2022-12-31T16:49:00.165Z,1.40
2022-12-31T16:51:39.034Z,1.42
2022-12-31T16:54:21.445Z,1.67
2022-12-31T16:56:48.001Z,1.70
2022-12-31T16:59:35.460Z,1.80
2022-12-31T17:02:05.148Z,1.70
2022-12-31T17:04:31.681Z,1.65
2022-12-31T17:07:27.948Z,1.55
2022-12-31T17:10:06.688Z,1.70
2022-12-31T17:13:16.995Z,1.77
2022-12-31T17:15:41.071Z,1.90
2022-12-31T17:18:13.702Z,2.03
2022-12-31T17:20:40.220Z,2.30
2022-12-31T17:23:09.160Z,2.28
2022-12-31T17:25:38.570Z,2.03
2022-12-31T17:28:22.198Z,2.25
2022-12-31T17:30:49.001Z,2.08
2022-12-31T17:33:21.445Z,2.10
2022-12-31T17:36:14.444Z,2.15
2022-12-31T17:38:42.195Z,1.60
2022-12-31T17:41:08.541Z,2.30
2022-12-31T17:43:38.970Z,2.15
2022-12-31T17:46:13.977Z,1.83
2022-12-31T17:48:41.536Z,2.25
2022-12-31T17:51:08.164Z,2.97
2022-12-31T17:53:34.906Z,2.67
2022-12-31T17:56:07.329Z,2.10
2022-12-31T17:58:43.372Z,2.28
2022-12-31T18:01:13.455Z,4.22
2022-12-31T18:03:40.128Z,6.63
2022-12-31T18:06:14.506Z,2.42
2022-12-31T18:08:42.849Z,2.30
2022-12-31T18:11:19.850Z,1.95
2022-12-31T18:13:46.649Z,2.42
2022-12-31T18:16:13.565Z,2.30
2022-12-31T18:18:41.989Z,2.40
2022-12-31T18:21:16.694Z,2.63
2022-12-31T18:23:47.994Z,1.83
2022-12-31T18:26:16.881Z,2.20
2022-12-31T18:28:43.450Z,2.20
2022-12-31T18:31:18.918Z,2.20
2022-12-31T18:33:46.838Z,2.50
2022-12-31T18:36:15.521Z,2.20
2022-12-31T18:38:42.153Z,2.38
2022-12-31T18:41:16.588Z,2.33
2022-12-31T18:43:43.164Z,2.00
2022-12-31T18:46:15.364Z,1.85
2022-12-31T18:48:42.006Z,2.03
2022-12-31T18:51:18.321Z,3.03
2022-12-31T18:53:47.902Z,2.55
2022-12-31T18:56:17.233Z,2.10
2022-12-31T18:58:44.760Z,2.53
2022-12-31T19:01:35.334Z,2.40
2022-12-31T19:04:27.580Z,2.55
2022-12-31T19:06:55.222Z,2.35
2022-12-31T19:09:47.163Z,2.50
2022-12-31T19:12:13.356Z,3.00
2022-12-31T19:14:39.878Z,3.55
2022-12-31T19:19:31.612Z,2.50
2022-12-31T19:21:58.051Z,2.47
2022-12-31T19:24:26.705Z,2.58
2022-12-31T19:26:54.298Z,3.35
2022-12-31T19:29:26.113Z,2.20
2022-12-31T19:31:58.456Z,2.80
2022-12-31T19:34:30.606Z,2.83
2022-12-31T19:36:57.000Z,3.30
2022-12-31T19:39:23.426Z,3.67
2022-12-31T19:41:56.581Z,13.55
2022-12-31T19:44:25.281Z,3.42
2022-12-31T19:46:51.726Z,3.80
2022-12-31T19:49:24.174Z,3.40
2022-12-31T19:51:56.074Z,3.38
2022-12-31T19:54:25.424Z,3.30
2022-12-31T19:56:51.883Z,3.55
2022-12-31T19:59:18.317Z,3.72
2022-12-31T20:01:44.820Z,3.65
2022-12-31T20:04:11.273Z,3.53
2022-12-31T20:06:40.810Z,3.47
2022-12-31T20:09:07.251Z,4.45
2022-12-31T20:11:33.794Z,3.88
2022-12-31T20:14:00.217Z,5.47
2022-12-31T20:16:26.977Z,5.13
2022-12-31T20:18:53.585Z,3.60
2022-12-31T20:21:26.285Z,4.00
2022-12-31T20:23:56.233Z,7.10
2022-12-31T20:26:23.803Z,5.32
2022-12-31T20:28:51.066Z,4.40
2022-12-31T20:31:21.375Z,5.10
2022-12-31T20:33:48.092Z,3.67
2022-12-31T20:36:16.095Z,5.38
2022-12-31T20:38:45.668Z,3.92
2022-12-31T20:41:18.010Z,3.28
2022-12-31T20:43:48.527Z,4.80
2022-12-31T20:46:24.766Z,3.28
2022-12-31T20:48:53.363Z,2.65
2022-12-31T20:51:22.188Z,2.67
2022-12-31T20:53:51.231Z,4.20
2022-12-31T20:56:18.734Z,2.70
2022-12-31T20:58:45.217Z,2.63
2022-12-31T21:01:12.373Z,2.95
2022-12-31T21:06:28.768Z,2.83
2022-12-31T21:08:57.384Z,2.30
2022-12-31T21:11:42.329Z,2.83
2022-12-31T21:14:08.856Z,2.47
2022-12-31T21:16:35.489Z,2.30
2022-12-31T21:19:02.167Z,3.08
2022-12-31T21:21:28.582Z,2.40
2022-12-31T21:23:55.004Z,3.13
2022-12-31T21:26:21.413Z,3.03
2022-12-31T21:28:47.818Z,3.00
2022-12-31T21:31:14.822Z,3.97
2022-12-31T21:33:47.725Z,2.90
2022-12-31T21:36:15.070Z,2.88
2022-12-31T21:38:41.515Z,2.35
2022-12-31T21:41:09.203Z,2.60
2022-12-31T21:43:35.670Z,2.65
2022-12-31T21:46:04.840Z,2.20
2022-12-31T21:48:34.120Z,2.13
2022-12-31T21:51:12.843Z,2.50
2022-12-31T21:53:39.584Z,3.00
2022-12-31T21:56:09.418Z,3.13
2022-12-31T21:59:07.816Z,2.80
2022-12-31T22:02:03.708Z,2.90
2022-12-31T22:07:16.653Z,2.95
2022-12-31T22:09:43.091Z,2.65
2022-12-31T22:12:09.666Z,2.60
2022-12-31T22:14:36.082Z,3.15
2022-12-31T22:17:02.481Z,2.88
2022-12-31T22:19:28.878Z,5.55
2022-12-31T22:21:55.279Z,3.60
2022-12-31T22:24:21.715Z,4.28
2022-12-31T22:26:48.134Z,3.38
2022-12-31T22:29:14.699Z,3.53
2022-12-31T22:31:41.146Z,3.13
2022-12-31T22:34:08.762Z,2.97
2022-12-31T22:36:35.284Z,2.63
2022-12-31T22:39:01.711Z,3.65
2022-12-31T22:41:28.581Z,2.88
2022-12-31T22:44:03.508Z,5.68
2022-12-31T22:46:30.513Z,4.40
2022-12-31T22:48:58.692Z,2.58
2022-12-31T22:51:28.090Z,2.70
2022-12-31T22:54:14.608Z,1.83
2022-12-31T22:56:41.229Z,2.53
2022-12-31T22:59:07.757Z,2.38
2022-12-31T23:01:34.463Z,9.00
2022-12-31T23:04:01.128Z,28.15
2022-12-31T23:06:28.694Z,7.72
2022-12-31T23:09:14.611Z,33.20
2022-12-31T23:11:43.020Z,62.25
2022-12-31T23:14:59.155Z,29.75
2022-12-31T23:17:45.386Z,25.33
2022-12-31T23:20:39.994Z,39.72
2022-12-31T23:23:14.597Z,35.67
2022-12-31T23:25:47.216Z,28.80
2022-12-31T23:28:16.061Z,24.35
2022-12-31T23:30:43.058Z,29.00
2022-12-31T23:33:15.289Z,14.65
2022-12-31T23:35:41.901Z,26.10
2022-12-31T23:38:08.345Z,23.65
2022-12-31T23:40:34.792Z,11.05
2022-12-31T23:43:06.594Z,14.32
2022-12-31T23:45:33.868Z,19.83
2022-12-31T23:48:00.582Z,9.57
2022-12-31T23:50:27.078Z,9.23
2022-12-31T23:52:53.950Z,7.63
2022-12-31T23:55:20.448Z,10.35
2022-12-31T23:57:46.928Z,12.23
